Country
Station

 

Weather  for  Madrid/Torrejon  -  Spain    Spain

  
37 °C (99 °F)
    
 
 

Current METAR for Madrid/Torrejon is :

LETO 191700Z 24005KT 170V290 9999 FEW060 37/07 Q1012 NOSIG

 

This is a report for Madrid/Torrejon - Spain.
 
The report was made 22 minutes ago, at 17:00 UTC .
The wind was blowing at a speed of 2.6 meters per second (5.8 miles per hour) from west/southwest (240°), varying between south (170°) and west/northwest (290°).
 
The temperature was 37 °C (99 °F), with a dew-point at 7 °C (45 °F).
The temperature felt like 35 °C (95 °F).
 
The atmospheric pressure was 1012 hPa (29.88 inHg).
The relative humidity was 16.0%.
 
There were a few clouds at a height of 1829 meters (6000 feet).
 
The overall visibility was greater than 10 kilometers (6.2 miles).
 

 
 
 
 

Country :   A   B   C   D   E   F   G   H   I   J   K   L   M   N   O   P   Q   R   S   T   U   V   W   Y   Z

 

Site Info  |  Disclaimer  |  Credits  |  Privacy
Contact us  |  Add to favorites
© 2013-2019 METARs - All rights reserved